»·PEaware :: PAL836 RPVM-RPLC

PAL836 :: RPVM-RPLC

FLIGHT INFORMATION

Flight Status: Arrived
Operator:
Philippine Airlines
More flights by this operator :: More flights under this callsign
Pilot: James B. (24167)
Aircraft: AIRBUS A320
(A320)
More flights by this aircraft type
Origin: RPVM Mactan-Cebu Intl
Philippines
Destination: RPLC Clark Intl
Philippines
More flights between these airports :: More routes between these airports
Route: MOLOC4P MOLOC W11 MIA W16 OLIVA OLIVA3R
File this flight plan on PilotEdge
Remarks:
Altitude:
(Current/Filed)
36,000ft
Speed:
(Current/Filed)
470kts
Departed: 01-Apr-20 07:08 AM
Arrived: 01-Apr-20 08:05 AM
Distance/Time
Traveled:
355nm/0:57
Distance/Time
To Go:
Arrived

Flight Plot

Page will automatically refresh every two minutes.

Flight plan parsing failed; only flown route is shown


Map Options




Map Legend


Flown Route
Filed Route
Departure Airport
Arrival Airport
Navaid (VOR, NDB)
Fix

Horizontal Profiles

Position Reports

Time Latitude Longitude Heading Altitude Ground
Speed
01-Apr-20 06:25 10.312559 123.977674 266 36ft 0kts
01-Apr-20 06:26 10.312559 123.977674 266 36ft 0kts
01-Apr-20 06:27 10.312559 123.977674 266 36ft 0kts
01-Apr-20 06:28 10.312559 123.977674 266 36ft 0kts
01-Apr-20 06:29 10.312559 123.977674 266 36ft 0kts
01-Apr-20 06:30 10.312559 123.977674 266 36ft 0kts
01-Apr-20 06:31 10.312559 123.977674 266 36ft 0kts
01-Apr-20 06:32 10.312559 123.977674 266 36ft 0kts
01-Apr-20 06:33 10.312559 123.977674 266 36ft 0kts
01-Apr-20 06:34 10.312559 123.977674 266 36ft 0kts
01-Apr-20 06:35 10.312559 123.977674 266 36ft 0kts
01-Apr-20 06:36 10.312559 123.977674 266 36ft 0kts
01-Apr-20 06:37 10.312559 123.977674 266 36ft 0kts
01-Apr-20 06:38 10.312559 123.977674 266 36ft 0kts
01-Apr-20 06:39 10.312559 123.977674 266 36ft 0kts
01-Apr-20 06:40 10.312559 123.977674 266 36ft 0kts
01-Apr-20 06:41 10.312559 123.977674 266 36ft 0kts
01-Apr-20 06:42 10.312559 123.977674 266 36ft 0kts
01-Apr-20 06:43 10.312559 123.977674 266 36ft 0kts
01-Apr-20 06:44 10.312559 123.977674 266 36ft 0kts
01-Apr-20 06:45 10.312559 123.977674 266 36ft 0kts
01-Apr-20 06:46 10.312559 123.977674 266 36ft 0kts
01-Apr-20 06:47 10.312559 123.977674 266 36ft 0kts
01-Apr-20 06:48 10.312559 123.977674 266 36ft 0kts
01-Apr-20 06:49 10.312559 123.977674 266 36ft 0kts
01-Apr-20 06:50 10.312559 123.977674 266 36ft 0kts
01-Apr-20 06:51 10.312559 123.977674 266 36ft 0kts
01-Apr-20 06:52 10.312559 123.977674 266 36ft 0kts
01-Apr-20 06:53 10.312559 123.977674 266 36ft 0kts
01-Apr-20 06:54 10.312559 123.977677 266 36ft 0kts
01-Apr-20 06:55 10.312730 123.978242 238 36ft 2kts
01-Apr-20 06:56 10.313106 123.978660 209 36ft 2kts
01-Apr-20 06:57 10.313602 123.978998 214 36ft 2kts
01-Apr-20 06:58 10.313852 123.979177 224 36ft 0kts
01-Apr-20 06:59 10.313852 123.979177 224 36ft 0kts
01-Apr-20 07:00 10.313779 123.979103 224 36ft 2kts
01-Apr-20 07:01 10.312582 123.979652 134 36ft 6kts
01-Apr-20 07:02 10.311022 123.978804 224 36ft 14kts
01-Apr-20 07:03 10.307209 123.974952 224 36ft 19kts
01-Apr-20 07:04 10.303103 123.970880 227 36ft 22kts
01-Apr-20 07:05 10.299281 123.967084 207 36ft 8kts
01-Apr-20 07:06 10.297342 123.968595 134 36ft 9kts
01-Apr-20 07:07 10.298342 123.970183 44 36ft 57kts
01-Apr-20 07:08 10.328712 124.001542 43 2033ft 182kts
01-Apr-20 07:09 10.380773 124.013623 342 4525ft 257kts
01-Apr-20 07:10 10.452390 123.989626 344 7856ft 283kts
01-Apr-20 07:11 10.530579 123.964660 346 10873ft 311kts
01-Apr-20 07:12 10.622134 123.934163 344 12295ft 376kts
01-Apr-20 07:13 10.709035 123.868018 304 13651ft 425kts
01-Apr-20 07:14 10.780913 123.771456 312 14026ft 427kts
01-Apr-20 07:15 10.858916 123.679224 313 14784ft 433kts
01-Apr-20 07:16 10.938119 123.585404 312 16881ft 436kts
01-Apr-20 07:17 11.022664 123.494810 327 18612ft 443kts
01-Apr-20 07:18 11.124961 123.423302 326 20076ft 454kts
01-Apr-20 07:19 11.230437 123.349566 326 21279ft 467kts
01-Apr-20 07:21 11.336153 123.275654 325 23640ft 451kts
01-Apr-20 07:22 11.435907 123.205954 326 26486ft 426kts
01-Apr-20 07:23 11.535726 123.135939 325 27829ft 438kts
01-Apr-20 07:24 11.637473 123.064598 325 29155ft 446kts
01-Apr-20 07:25 11.740936 122.992424 325 30422ft 451kts
01-Apr-20 07:26 11.844861 122.918932 325 31576ft 457kts
01-Apr-20 07:27 11.950235 122.844709 325 32515ft 464kts
01-Apr-20 07:28 12.057276 122.769379 325 33244ft 471kts
01-Apr-20 07:29 12.165452 122.693267 325 33936ft 474kts
01-Apr-20 07:30 12.273242 122.617296 325 34972ft 467kts
01-Apr-20 07:31 12.380206 122.541692 325 35692ft 466kts
01-Apr-20 07:32 12.486597 122.466434 325 35924ft 464kts
01-Apr-20 07:33 12.593333 122.390868 325 35926ft 465kts
01-Apr-20 07:34 12.699193 122.315845 325 35926ft 465kts
01-Apr-20 07:35 12.805620 122.240342 325 35929ft 464kts
01-Apr-20 07:36 12.911734 122.164982 324 35934ft 463kts
01-Apr-20 07:37 13.017989 122.089443 324 35922ft 462kts
01-Apr-20 07:37 13.104046 122.028204 324 35918ft 462kts
01-Apr-20 07:39 13.225731 121.941519 324 35976ft 462kts
01-Apr-20 07:40 13.331291 121.866237 324 35981ft 462kts
01-Apr-20 07:40 13.419207 121.803475 324 35983ft 462kts
01-Apr-20 07:42 13.542331 121.715479 324 35977ft 462kts
01-Apr-20 07:42 13.630481 121.652413 324 35977ft 462kts
01-Apr-20 07:43 13.735963 121.576900 324 35979ft 462kts
01-Apr-20 07:45 13.859161 121.488656 324 34764ft 458kts
01-Apr-20 07:45 13.946805 121.425801 324 32210ft 467kts
01-Apr-20 07:46 14.052864 121.349662 324 28865ft 477kts
01-Apr-20 07:47 14.162108 121.271072 324 25125ft 490kts
01-Apr-20 07:48 14.272960 121.191221 324 22215ft 478kts
01-Apr-20 07:49 14.374259 121.118220 324 19630ft 462kts
01-Apr-20 07:50 14.464246 121.053296 324 17252ft 447kts
01-Apr-20 07:51 14.544123 120.997244 326 15098ft 434kts
01-Apr-20 07:52 14.633873 120.936438 327 12644ft 420kts
01-Apr-20 07:53 14.736680 120.866691 329 10856ft 375kts
01-Apr-20 07:54 14.829018 120.803998 330 10122ft 312kts
01-Apr-20 07:55 14.898034 120.757141 330 9044ft 290kts
01-Apr-20 07:56 14.948036 120.697440 269 7657ft 294kts
01-Apr-20 07:57 14.942780 120.612922 267 6180ft 292kts
01-Apr-20 07:58 14.953652 120.533630 293 4800ft 277kts
01-Apr-20 07:59 15.000299 120.489003 15 3694ft 234kts
01-Apr-20 08:00 15.056546 120.511175 20 2874ft 188kts
01-Apr-20 08:01 15.099016 120.528049 19 1993ft 138kts
01-Apr-20 08:02 15.135033 120.542565 19 1284ft 138kts
01-Apr-20 08:03 15.171070 120.556792 19 583ft 139kts
01-Apr-20 08:04 15.194324 120.565980 21 423ft 32kts
01-Apr-20 08:05 15.196425 120.564338 291 425ft 8kts
01-Apr-20 08:06 15.197237 120.562162 291 433ft 11kts
01-Apr-20 08:07 15.196826 120.559718 201 443ft 10kts
01-Apr-20 08:08 15.193122 120.558250 201 455ft 17kts
01-Apr-20 08:09 15.188776 120.556522 201 470ft 20kts
01-Apr-20 08:10 15.185726 120.554540 291 487ft 11kts
01-Apr-20 08:11 15.186884 120.551701 327 506ft 7kts
01-Apr-20 08:12 15.187666 120.550665 291 508ft 0kts
01-Apr-20 08:13 15.187666 120.550665 291 508ft 0kts
01-Apr-20 08:14 15.187666 120.550665 291 508ft 0kts

Navigation Log

Ident Type
Flight plan parsing failed, navigation log unavailable